Time;durP1;ratioP1;P1;durP2;ratioP2;P2;SDS_P1;SDS_P2;PMS_P1;PMS_P2;Temp;Humidity;BMP_temperature;BMP_pressure;BME280_temperature;BME280_humidity;BME280_pressure;Samples;Min_cycle;Max_cycle;Signal;HPM_P1;HPM_P2
2023/01/06 00:01:34;;;;;;;16.77;10.55;;;5.10;99.90;;;;;;5039694;28;20033;-74
2023/01/06 00:04:01;;;;;;;15.55;11.00;;;5.10;99.90;;;;;;5033479;28;20022;-74
2023/01/06 00:06:29;;;;;;;16.83;10.40;;;5.10;99.90;;;;;;5036759;28;20025;-73
2023/01/06 00:08:57;;;;;;;17.58;10.48;;;5.10;99.90;;;;;;5051903;28;20036;-76
2023/01/06 00:11:24;;;;;;;16.30;11.07;;;5.20;99.90;;;;;;5053090;28;20040;-74
2023/01/06 00:13:50;;;;;;;20.13;11.10;;;5.20;99.90;;;;;;5053044;28;20021;-74
2023/01/06 00:16:17;;;;;;;16.58;10.32;;;5.10;99.90;;;;;;5052309;28;20052;-74
2023/01/06 00:18:44;;;;;;;17.38;11.30;;;5.20;99.90;;;;;;5053314;28;20240;-74
2023/01/06 00:21:11;;;;;;;17.70;10.77;;;5.00;99.90;;;;;;5053059;28;20131;-74
2023/01/06 00:23:37;;;;;;;19.35;10.65;;;5.10;99.90;;;;;;5048169;28;20094;-74
2023/01/06 00:26:04;;;;;;;20.23;10.80;;;5.00;99.90;;;;;;5046175;28;20126;-76
2023/01/06 00:28:30;;;;;;;22.85;12.35;;;5.00;99.90;;;;;;5052608;28;20072;-74
2023/01/06 00:30:56;;;;;;;24.67;12.10;;;5.10;99.90;;;;;;5052569;28;20106;-76
2023/01/06 00:33:22;;;;;;;26.73;13.43;;;5.10;99.90;;;;;;5052877;28;20025;-74
2023/01/06 00:35:48;;;;;;;27.15;13.18;;;5.00;99.90;;;;;;5052541;28;20076;-74
2023/01/06 00:38:14;;;;;;;29.08;15.10;;;5.00;99.90;;;;;;5033444;28;20030;-74
2023/01/06 00:40:39;;;;;;;29.52;13.57;;;4.90;99.90;;;;;;5032392;28;20021;-74
2023/01/06 00:43:05;;;;;;;26.10;13.95;;;4.90;99.90;;;;;;5031982;28;20026;-74
2023/01/06 00:45:31;;;;;;;23.88;13.07;;;4.80;99.90;;;;;;5046691;28;20025;-74
2023/01/06 00:47:57;;;;;;;21.83;12.93;;;4.80;99.90;;;;;;5052409;28;20052;-74
2023/01/06 00:50:22;;;;;;;21.95;12.20;;;4.80;99.90;;;;;;5052472;28;20453;-76
2023/01/06 00:52:48;;;;;;;20.35;11.15;;;4.80;99.90;;;;;;5067887;28;20055;-73
2023/01/06 00:55:14;;;;;;;20.98;11.77;;;4.80;99.90;;;;;;5052004;28;20024;-74
2023/01/06 00:57:40;;;;;;;18.08;10.82;;;4.90;99.90;;;;;;5047740;28;20036;-74
2023/01/06 01:00:08;;;;;;;17.10;10.07;;;4.80;99.90;;;;;;5044579;28;20419;-74
2023/01/06 01:02:34;;;;;;;16.25;9.55;;;4.80;99.90;;;;;;5032922;28;20022;-73
2023/01/06 01:04:59;;;;;;;15.55;9.65;;;4.80;99.90;;;;;;5032645;28;20022;-74
2023/01/06 01:07:25;;;;;;;14.35;9.60;;;4.90;99.90;;;;;;5049679;28;20116;-73
2023/01/06 01:09:51;;;;;;;17.17;10.23;;;4.80;99.90;;;;;;5039662;28;20389;-74
2023/01/06 01:12:16;;;;;;;16.10;10.13;;;4.90;99.90;;;;;;5030439;28;20025;-74
2023/01/06 01:14:48;;;;;;;19.25;9.77;;;5.00;99.90;;;;;;5048115;28;20414;-74
2023/01/06 01:17:23;;;;;;;15.55;8.77;;;4.90;99.90;;;;;;5038788;28;20021;-74
2023/01/06 01:19:50;;;;;;;14.00;9.02;;;4.90;99.90;;;;;;5043854;28;20033;-74
2023/01/06 01:22:16;;;;;;;12.65;8.90;;;5.00;99.90;;;;;;5051873;28;20021;-74
2023/01/06 01:24:42;;;;;;;17.25;9.82;;;4.90;99.90;;;;;;5036974;28;20403;-73
2023/01/06 01:27:08;;;;;;;16.77;9.15;;;4.90;99.90;;;;;;5031773;28;20036;-74
2023/01/06 01:29:34;;;;;;;19.23;10.48;;;4.90;99.90;;;;;;5031841;28;20057;-74
2023/01/06 01:32:00;;;;;;;21.27;11.60;;;4.70;99.90;;;;;;5031798;28;20021;-74
2023/01/06 01:34:25;;;;;;;23.65;11.95;;;4.90;99.90;;;;;;5031390;28;20088;-73
2023/01/06 01:36:52;;;;;;;23.38;12.52;;;4.90;99.90;;;;;;5031500;28;20660;-74
2023/01/06 01:39:20;;;;;;;26.30;13.50;;;4.90;99.90;;;;;;5032299;28;20491;-74
2023/01/06 01:41:46;;;;;;;26.65;13.75;;;5.00;99.90;;;;;;5035774;28;20495;-73
2023/01/06 01:44:49;;;;;;;21.40;12.00;;;5.00;99.90;;;;;;5046640;28;20032;-75
2023/01/06 01:47:21;;;;;;;24.42;12.50;;;5.10;99.90;;;;;;5050814;28;20059;-76
2023/01/06 01:49:50;;;;;;;22.75;12.25;;;5.20;99.90;;;;;;5051832;28;20036;-74
2023/01/06 01:52:17;;;;;;;20.92;12.02;;;5.20;99.90;;;;;;5051115;28;20025;-76
2023/01/06 01:54:44;;;;;;;22.00;11.73;;;5.20;99.90;;;;;;5051493;28;20029;-76
2023/01/06 01:57:26;;;;;;;20.77;12.18;;;5.10;99.90;;;;;;5049243;28;20046;-73
2023/01/06 01:59:52;;;;;;;25.25;11.38;;;5.10;99.90;;;;;;5051627;28;20071;-73
2023/01/06 02:02:19;;;;;;;24.27;11.73;;;4.90;99.90;;;;;;5032104;28;20021;-73
2023/01/06 02:04:50;;;;;;;23.58;12.23;;;5.00;99.90;;;;;;5042706;28;20044;-75
2023/01/06 02:07:16;;;;;;;22.40;11.38;;;5.00;99.90;;;;;;5051043;28;20047;-76
2023/01/06 02:10:00;;;;;;;22.33;11.38;;;5.00;99.90;;;;;;5051425;28;20029;-76
2023/01/06 02:12:25;;;;;;;18.38;10.77;;;4.90;99.90;;;;;;5043171;28;20021;-76
2023/01/06 02:14:51;;;;;;;18.52;10.43;;;5.10;99.90;;;;;;5048113;28;20110;-76
2023/01/06 02:17:43;;;;;;;19.27;11.10;;;5.20;99.90;;;;;;5050512;28;20025;-76
2023/01/06 02:20:36;;;;;;;19.25;10.57;;;5.10;99.90;;;;;;5049674;28;20033;-76
2023/01/06 02:23:20;;;;;;;15.18;8.98;;;5.10;99.90;;;;;;5049761;28;20048;-76
2023/01/06 02:26:13;;;;;;;17.10;9.52;;;5.10;99.90;;;;;;5030971;28;20108;-76
2023/01/06 02:29:19;;;;;;;20.13;10.40;;;5.10;99.90;;;;;;5038427;28;20106;-73
2023/01/06 02:31:57;;;;;;;19.42;10.82;;;5.00;99.90;;;;;;5050201;28;20024;-76
2023/01/06 02:34:43;;;;;;;15.82;9.35;;;5.00;99.90;;;;;;5035883;28;20026;-73
2023/01/06 02:37:35;;;;;;;21.75;11.13;;;5.00;99.90;;;;;;5031200;28;20029;-73
2023/01/06 02:40:07;;;;;;;16.95;9.25;;;5.20;99.90;;;;;;5054008;28;20064;-73
2023/01/06 02:42:47;;;;;;;19.63;10.32;;;5.00;99.90;;;;;;5050044;28;20021;-76
2023/01/06 02:45:21;;;;;;;17.33;10.57;;;5.00;99.90;;;;;;5050267;28;20025;-76
2023/01/06 02:48:03;;;;;;;17.25;10.02;;;5.00;99.90;;;;;;5036900;28;20025;-73
2023/01/06 02:50:41;;;;;;;19.48;11.15;;;5.00;99.90;;;;;;5050321;28;20063;-76
2023/01/06 02:53:13;;;;;;;16.13;10.07;;;5.10;99.90;;;;;;5050275;28;20025;-76
2023/01/06 02:55:50;;;;;;;18.27;9.90;;;5.30;99.90;;;;;;5050370;28;20036;-76
2023/01/06 02:58:47;;;;;;;16.52;8.75;;;5.20;99.90;;;;;;5049707;28;20033;-76
2023/01/06 03:01:30;;;;;;;16.35;9.32;;;5.20;99.90;;;;;;5038483;28;20094;-74
2023/01/06 03:04:00;;;;;;;18.85;9.43;;;5.20;99.90;;;;;;5050191;28;20032;-73
2023/01/06 03:06:29;;;;;;;14.82;9.18;;;5.30;99.90;;;;;;5045679;28;20024;-73
2023/01/06 03:08:56;;;;;;;16.00;9.50;;;5.30;99.90;;;;;;5048530;28;20052;-73
2023/01/06 03:11:25;;;;;;;13.05;8.77;;;5.40;99.90;;;;;;5050169;28;20100;-73
2023/01/06 03:13:57;;;;;;;15.45;8.45;;;5.40;99.90;;;;;;5049964;28;20025;-73
2023/01/06 03:16:23;;;;;;;15.00;8.13;;;5.20;99.90;;;;;;5049636;28;20025;-73
2023/01/06 03:18:51;;;;;;;15.77;10.05;;;5.10;99.90;;;;;;5048852;28;20021;-73
2023/01/06 03:21:21;;;;;;;15.00;8.60;;;5.30;99.90;;;;;;5049863;28;20100;-73
2023/01/06 03:23:47;;;;;;;13.73;8.85;;;5.10;99.90;;;;;;5045558;28;20527;-73
2023/01/06 03:26:13;;;;;;;11.90;7.78;;;5.30;99.90;;;;;;5044250;28;20028;-73
2023/01/06 03:28:38;;;;;;;13.48;8.32;;;5.30;99.90;;;;;;5050025;28;20084;-76
2023/01/06 03:31:30;;;;;;;13.68;8.13;;;5.40;99.90;;;;;;5050090;28;20534;-76
2023/01/06 03:34:12;;;;;;;11.98;7.60;;;5.40;99.90;;;;;;5050207;28;20040;-76
2023/01/06 03:36:59;;;;;;;12.20;7.85;;;5.50;99.90;;;;;;5049796;28;20112;-73
2023/01/06 03:39:52;;;;;;;10.70;6.63;;;5.40;99.90;;;;;;5049656;28;20023;-73
2023/01/06 03:45:20;;;;;;;10.82;6.70;;;5.40;99.90;;;;;;5050021;28;20053;-73
2023/01/06 03:48:00;;;;;;;10.10;6.45;;;5.30;99.90;;;;;;5049666;28;20025;-74
2023/01/06 03:50:44;;;;;;;11.07;6.28;;;5.40;99.90;;;;;;5049894;28;20029;-73
2023/01/06 03:53:28;;;;;;;11.68;7.05;;;5.40;99.90;;;;;;5050103;28;20171;-76
2023/01/06 03:56:12;;;;;;;12.18;7.25;;;5.50;99.90;;;;;;5049982;28;20029;-73
2023/01/06 03:58:39;;;;;;;9.63;6.65;;;5.30;99.90;;;;;;5049551;28;20028;-73
2023/01/06 04:01:07;;;;;;;11.18;6.68;;;5.40;99.90;;;;;;5037570;28;20025;-73
2023/01/06 04:03:33;;;;;;;9.35;6.20;;;5.40;99.90;;;;;;5049611;28;20013;-73
2023/01/06 04:05:59;;;;;;;11.15;7.05;;;5.40;99.90;;;;;;5049902;28;20021;-73
2023/01/06 04:08:25;;;;;;;11.38;6.60;;;5.40;99.90;;;;;;5045028;28;20490;-74
2023/01/06 04:10:50;;;;;;;9.32;6.28;;;5.30;99.90;;;;;;5053107;28;20017;-74
2023/01/06 04:13:16;;;;;;;9.68;6.53;;;5.40;99.90;;;;;;5052958;28;20556;-73
2023/01/06 04:15:42;;;;;;;10.52;7.03;;;5.40;99.90;;;;;;5053125;28;20021;-73
2023/01/06 04:18:08;;;;;;;10.13;6.35;;;5.50;99.90;;;;;;5053177;28;20650;-73
2023/01/06 04:20:33;;;;;;;9.25;6.15;;;5.50;99.90;;;;;;5053761;28;20394;-74
2023/01/06 04:22:59;;;;;;;9.13;6.57;;;5.40;99.90;;;;;;5052548;28;20513;-73
2023/01/06 04:25:25;;;;;;;9.93;6.35;;;5.50;99.90;;;;;;5053016;28;20021;-73
2023/01/06 04:27:51;;;;;;;10.60;6.50;;;5.40;99.90;;;;;;5053194;28;20021;-73
2023/01/06 04:30:17;;;;;;;8.55;5.38;;;5.50;99.90;;;;;;5052757;28;20057;-73
2023/01/06 04:32:43;;;;;;;9.68;5.57;;;5.50;99.90;;;;;;5052546;28;20406;-73
2023/01/06 04:35:09;;;;;;;9.02;5.72;;;5.60;99.90;;;;;;5048494;28;20098;-73
2023/01/06 04:37:35;;;;;;;7.40;4.90;;;5.60;99.90;;;;;;5046999;28;20028;-74
2023/01/06 04:40:01;;;;;;;8.73;5.00;;;5.60;99.90;;;;;;5052822;28;20450;-73
2023/01/06 04:42:26;;;;;;;9.15;5.15;;;5.60;99.90;;;;;;5052336;28;20017;-73
2023/01/06 04:44:52;;;;;;;7.80;5.82;;;5.70;99.90;;;;;;5052496;28;20051;-73
2023/01/06 04:47:18;;;;;;;7.43;5.15;;;5.70;99.90;;;;;;5052655;28;20548;-73
2023/01/06 04:49:43;;;;;;;8.55;4.80;;;5.70;99.90;;;;;;5053022;28;20028;-73
2023/01/06 04:52:09;;;;;;;6.97;4.72;;;5.80;99.90;;;;;;5052684;28;20446;-73
2023/01/06 04:54:35;;;;;;;6.82;4.80;;;5.70;99.90;;;;;;5052374;28;20564;-73
2023/01/06 04:57:01;;;;;;;4.82;4.10;;;5.80;99.90;;;;;;5052094;28;20013;-73
2023/01/06 04:59:27;;;;;;;6.32;4.70;;;5.80;99.90;;;;;;5052834;28;20079;-76
2023/01/06 05:01:52;;;;;;;6.60;4.57;;;5.80;99.90;;;;;;5037688;28;20487;-75
2023/01/06 05:04:18;;;;;;;6.65;4.63;;;5.90;99.90;;;;;;5032697;28;20080;-73
2023/01/06 05:06:44;;;;;;;7.97;5.10;;;5.70;99.90;;;;;;5038750;28;20517;-75
2023/01/06 05:09:10;;;;;;;6.32;4.60;;;5.70;99.90;;;;;;5052151;28;20033;-75
2023/01/06 05:11:36;;;;;;;7.72;5.10;;;5.80;99.90;;;;;;5051603;28;20037;-75
2023/01/06 05:14:02;;;;;;;6.35;4.63;;;5.90;99.90;;;;;;5051953;28;20413;-75
2023/01/06 05:16:31;;;;;;;7.05;4.43;;;5.80;99.90;;;;;;5048775;28;20025;-75
2023/01/06 05:18:57;;;;;;;7.22;4.60;;;5.80;99.90;;;;;;5051903;28;20025;-75
2023/01/06 05:21:25;;;;;;;6.60;4.95;;;5.80;99.90;;;;;;5048289;28;20060;-75
2023/01/06 05:23:51;;;;;;;6.50;4.63;;;5.70;99.90;;;;;;5052176;28;20017;-75
2023/01/06 05:26:23;;;;;;;8.15;4.82;;;5.80;99.90;;;;;;5051334;28;20032;-75
2023/01/06 05:28:49;;;;;;;7.97;4.55;;;5.80;99.90;;;;;;5051755;28;20175;-75
2023/01/06 05:31:15;;;;;;;6.90;3.97;;;5.90;99.90;;;;;;5051506;28;20055;-75
2023/01/06 05:33:41;;;;;;;6.28;5.00;;;5.90;99.90;;;;;;5047019;28;20499;-75
2023/01/06 05:36:11;;;;;;;5.78;4.22;;;5.90;99.90;;;;;;5047771;28;20039;-75
2023/01/06 05:38:37;;;;;;;5.88;4.28;;;5.80;99.90;;;;;;5047008;28;20514;-75
2023/01/06 05:41:03;;;;;;;5.68;4.00;;;5.90;99.90;;;;;;5048713;28;20025;-75
2023/01/06 05:43:31;;;;;;;6.93;4.70;;;5.90;99.90;;;;;;5046221;28;20079;-75
2023/01/06 05:45:57;;;;;;;7.43;4.70;;;5.90;99.90;;;;;;5049176;28;20025;-75
2023/01/06 05:48:24;;;;;;;5.75;4.40;;;5.90;99.90;;;;;;5046884;28;20588;-75
2023/01/06 05:50:50;;;;;;;7.60;4.45;;;6.00;99.90;;;;;;5047958;28;20036;-75
2023/01/06 05:53:16;;;;;;;6.63;4.10;;;6.10;99.90;;;;;;5051604;28;20092;-76
2023/01/06 05:55:42;;;;;;;8.18;4.90;;;6.00;99.90;;;;;;5051391;28;20029;-75
2023/01/06 05:58:07;;;;;;;6.53;4.30;;;6.00;99.90;;;;;;5046126;28;20087;-75
2023/01/06 06:00:33;;;;;;;5.32;4.00;;;6.10;99.90;;;;;;5044401;28;20025;-75
2023/01/06 06:02:59;;;;;;;5.90;4.40;;;6.20;99.90;;;;;;5036596;28;20458;-75
2023/01/06 06:05:25;;;;;;;8.18;4.10;;;6.20;99.90;;;;;;5048045;28;20028;-75
2023/01/06 06:07:53;;;;;;;7.57;4.45;;;6.00;99.90;;;;;;5051868;28;20107;-75
2023/01/06 06:10:19;;;;;;;5.88;4.43;;;6.10;99.90;;;;;;5047131;28;20068;-75
2023/01/06 06:12:44;;;;;;;7.72;4.95;;;6.10;99.90;;;;;;5030881;28;20556;-75
2023/01/06 06:15:10;;;;;;;7.70;4.55;;;6.20;99.90;;;;;;5066116;28;20032;-75
2023/01/06 06:17:36;;;;;;;7.40;5.20;;;6.20;99.90;;;;;;5046382;28;20549;-75
2023/01/06 06:20:02;;;;;;;7.28;4.30;;;6.30;99.90;;;;;;5047935;28;20546;-75
2023/01/06 06:22:28;;;;;;;6.47;4.70;;;6.30;99.90;;;;;;5051305;28;20069;-75
2023/01/06 06:24:53;;;;;;;7.97;4.80;;;6.10;99.90;;;;;;5050796;28;20506;-75
2023/01/06 06:27:19;;;;;;;6.82;4.88;;;6.00;99.90;;;;;;5050897;28;20025;-75
2023/01/06 06:29:45;;;;;;;9.70;4.93;;;6.10;99.90;;;;;;5046115;28;20108;-75
2023/01/06 06:32:10;;;;;;;7.18;4.57;;;6.10;99.90;;;;;;5040567;28;20033;-75
2023/01/06 06:34:36;;;;;;;6.72;4.80;;;6.10;99.90;;;;;;5050412;28;20628;-75
2023/01/06 06:37:02;;;;;;;7.18;4.32;;;6.10;99.90;;;;;;5049810;28;20576;-75
2023/01/06 06:39:27;;;;;;;6.75;4.90;;;6.00;99.90;;;;;;5050516;28;20021;-75
2023/01/06 06:41:53;;;;;;;7.25;4.65;;;6.10;99.90;;;;;;5050568;28;20025;-75
2023/01/06 06:44:19;;;;;;;6.78;5.25;;;6.10;99.90;;;;;;5050477;28;20028;-75
2023/01/06 06:46:45;;;;;;;6.63;4.75;;;6.10;99.90;;;;;;5050675;28;20033;-75
2023/01/06 06:49:10;;;;;;;6.68;4.22;;;6.20;99.90;;;;;;5050165;28;20017;-75
2023/01/06 06:51:36;;;;;;;7.35;4.53;;;6.30;99.90;;;;;;5049701;28;20033;-75
2023/01/06 06:54:02;;;;;;;5.82;4.47;;;6.30;99.90;;;;;;5050024;28;20139;-75
2023/01/06 06:56:28;;;;;;;6.45;4.57;;;6.20;99.90;;;;;;5050894;28;20032;-75
2023/01/06 06:58:54;;;;;;;6.47;4.63;;;6.20;99.90;;;;;;5048253;28;20036;-75
2023/01/06 07:01:20;;;;;;;5.40;3.83;;;6.20;99.90;;;;;;5050123;28;20044;-75
2023/01/06 07:03:46;;;;;;;5.55;3.83;;;6.30;99.90;;;;;;5050176;28;20017;-75
2023/01/06 07:06:15;;;;;;;6.10;4.43;;;6.20;99.90;;;;;;5049474;28;20035;-75
2023/01/06 07:08:45;;;;;;;5.00;3.90;;;6.20;99.90;;;;;;5050365;28;20017;-75
2023/01/06 07:11:11;;;;;;;5.88;3.83;;;6.30;99.90;;;;;;5043723;28;20100;-76
2023/01/06 07:13:37;;;;;;;6.78;4.57;;;6.20;99.90;;;;;;5045347;28;20044;-75
2023/01/06 07:16:03;;;;;;;5.22;3.85;;;6.30;99.90;;;;;;5049149;28;20025;-75
2023/01/06 07:18:29;;;;;;;7.20;4.75;;;6.40;99.90;;;;;;5050668;28;20051;-75
2023/01/06 07:20:54;;;;;;;7.63;5.10;;;6.40;99.90;;;;;;5050019;28;20458;-75
2023/01/06 07:23:21;;;;;;;8.10;5.10;;;6.30;99.90;;;;;;5045608;28;20403;-75
2023/01/06 07:25:54;;;;;;;9.57;4.97;;;6.40;99.90;;;;;;5040279;28;20083;-75
2023/01/06 07:28:20;;;;;;;9.63;5.10;;;6.40;99.90;;;;;;5032083;28;20049;-76
2023/01/06 07:30:46;;;;;;;8.65;5.50;;;6.30;99.90;;;;;;5029993;28;20545;-75
2023/01/06 07:33:11;;;;;;;10.43;5.57;;;6.30;99.90;;;;;;5031682;28;20033;-75
2023/01/06 07:35:37;;;;;;;10.52;4.88;;;6.30;99.90;;;;;;5049036;28;20541;-75
2023/01/06 07:38:04;;;;;;;8.52;4.57;;;6.40;99.90;;;;;;5049501;28;20017;-75
2023/01/06 07:40:30;;;;;;;10.80;5.47;;;6.40;99.90;;;;;;5038790;28;20061;-75
2023/01/06 07:42:55;;;;;;;9.30;5.45;;;6.30;99.90;;;;;;5034023;28;20041;-75
2023/01/06 07:45:21;;;;;;;8.05;4.78;;;6.40;99.90;;;;;;5054066;28;20071;-75
2023/01/06 07:47:47;;;;;;;10.45;5.70;;;6.40;99.90;;;;;;5054175;28;20033;-75
2023/01/06 07:50:12;;;;;;;7.78;4.93;;;6.50;99.90;;;;;;5054065;28;20098;-75
2023/01/06 07:52:38;;;;;;;6.18;4.28;;;6.40;99.90;;;;;;5054114;28;20052;-76
2023/01/06 07:55:04;;;;;;;8.07;4.72;;;6.50;99.90;;;;;;5053406;28;20037;-75
2023/01/06 07:57:30;;;;;;;5.75;4.30;;;6.50;99.90;;;;;;5048568;28;20120;-75
2023/01/06 07:59:56;;;;;;;5.32;3.60;;;6.50;99.90;;;;;;5044555;28;20096;-75
2023/01/06 08:02:22;;;;;;;6.40;4.43;;;6.60;99.90;;;;;;5038495;28;20498;-75
2023/01/06 08:04:47;;;;;;;6.55;4.20;;;6.60;99.90;;;;;;5042622;28;20104;-75
2023/01/06 08:07:14;;;;;;;5.05;3.60;;;6.60;99.90;;;;;;5046683;28;20033;-75
2023/01/06 08:09:40;;;;;;;4.80;3.55;;;6.60;99.90;;;;;;5050685;28;20517;-76
2023/01/06 08:12:06;;;;;;;5.65;4.07;;;6.70;99.90;;;;;;5049864;28;20060;-75
2023/01/06 08:14:32;;;;;;;5.97;4.45;;;6.60;99.90;;;;;;5050456;28;20492;-74
2023/01/06 08:16:57;;;;;;;5.50;4.00;;;6.60;99.90;;;;;;5052063;28;20155;-75
2023/01/06 08:19:23;;;;;;;6.78;4.47;;;6.60;99.90;;;;;;5051643;28;20029;-75
2023/01/06 08:21:49;;;;;;;5.40;4.15;;;6.60;99.90;;;;;;5033462;28;20030;-76
2023/01/06 08:24:14;;;;;;;6.25;4.28;;;6.70;99.90;;;;;;5046004;28;20020;-75
2023/01/06 08:26:40;;;;;;;6.63;4.07;;;6.80;99.90;;;;;;5051103;28;20494;-75
2023/01/06 08:29:07;;;;;;;5.60;4.45;;;6.80;99.90;;;;;;5052066;28;20036;-75
2023/01/06 08:31:33;;;;;;;6.28;4.35;;;6.80;99.90;;;;;;5032243;28;20145;-75
2023/01/06 08:33:59;;;;;;;5.03;4.15;;;6.80;99.90;;;;;;5041845;28;20491;-75
2023/01/06 08:36:25;;;;;;;5.53;4.28;;;6.70;99.90;;;;;;5051386;28;20025;-75
2023/01/06 08:38:51;;;;;;;6.38;4.60;;;6.80;99.90;;;;;;5051368;28;20033;-76
2023/01/06 08:41:17;;;;;;;6.55;4.03;;;6.80;99.90;;;;;;5051150;28;20017;-75
2023/01/06 08:43:44;;;;;;;5.57;4.05;;;6.80;99.90;;;;;;5050694;28;20112;-75
2023/01/06 08:46:12;;;;;;;5.45;4.57;;;6.90;99.90;;;;;;5045496;28;20025;-75
2023/01/06 08:48:38;;;;;;;7.35;4.45;;;7.00;99.90;;;;;;5043015;28;20037;-75
2023/01/06 08:51:14;;;;;;;4.78;3.90;;;7.00;99.90;;;;;;5046130;28;20152;-75
2023/01/06 08:53:42;;;;;;;5.63;4.07;;;7.00;99.90;;;;;;5038786;28;20116;-75
2023/01/06 08:56:13;;;;;;;5.25;4.07;;;7.10;99.90;;;;;;5042573;28;20567;-75
2023/01/06 08:58:39;;;;;;;6.68;4.47;;;7.10;99.90;;;;;;5047902;28;20025;-75
2023/01/06 09:01:05;;;;;;;5.22;4.18;;;7.10;99.90;;;;;;5038886;28;20037;-75
2023/01/06 09:03:30;;;;;;;6.72;4.68;;;7.10;99.90;;;;;;5051541;28;20021;-75
2023/01/06 09:05:57;;;;;;;6.40;4.47;;;7.10;99.90;;;;;;5043555;28;20037;-75
2023/01/06 09:08:24;;;;;;;5.70;4.60;;;7.20;99.90;;;;;;5050952;28;20529;-75
2023/01/06 09:10:49;;;;;;;5.25;3.65;;;7.30;99.90;;;;;;5050529;28;20033;-75
2023/01/06 09:13:16;;;;;;;6.70;4.70;;;7.30;99.90;;;;;;5051914;28;20024;-75
2023/01/06 09:15:42;;;;;;;5.65;4.55;;;7.40;99.90;;;;;;5051151;28;20056;-75
2023/01/06 09:18:09;;;;;;;5.38;4.00;;;7.30;99.90;;;;;;5050571;28;20017;-75
2023/01/06 09:20:36;;;;;;;6.85;5.03;;;7.30;99.90;;;;;;5051029;28;20068;-75
2023/01/06 09:23:01;;;;;;;6.70;4.53;;;7.40;99.90;;;;;;5050478;28;20021;-75
2023/01/06 09:25:27;;;;;;;7.57;5.40;;;7.40;99.90;;;;;;5038812;28;20030;-75
2023/01/06 09:27:53;;;;;;;6.30;5.03;;;7.40;99.90;;;;;;5040093;28;20017;-75
2023/01/06 09:30:19;;;;;;;7.97;5.60;;;7.50;99.90;;;;;;5048378;28;20095;-75
2023/01/06 09:32:44;;;;;;;7.30;4.88;;;7.70;99.90;;;;;;5050074;28;20043;-75
2023/01/06 09:35:10;;;;;;;7.80;5.28;;;7.70;99.90;;;;;;5050512;28;20032;-75
2023/01/06 09:37:36;;;;;;;6.25;4.72;;;7.70;99.90;;;;;;5041119;28;20025;-75
2023/01/06 09:40:02;;;;;;;7.72;4.72;;;7.90;99.90;;;;;;5049229;28;20542;-75
2023/01/06 09:43:17;;;;;;;6.82;5.03;;;7.90;99.90;;;;;;5036067;28;20022;-75
2023/01/06 09:45:48;;;;;;;6.85;4.93;;;7.80;99.90;;;;;;5041951;28;20037;-75
2023/01/06 09:48:20;;;;;;;6.63;4.38;;;8.00;99.90;;;;;;5046064;28;20036;-75
2023/01/06 09:50:51;;;;;;;6.05;4.25;;;8.00;99.90;;;;;;5049674;28;20039;-75
2023/01/06 09:53:29;;;;;;;7.38;4.60;;;8.00;99.90;;;;;;5050661;28;20112;-75
2023/01/06 09:55:59;;;;;;;6.53;4.63;;;8.10;99.90;;;;;;5051400;28;20025;-75
2023/01/06 09:58:37;;;;;;;8.30;5.65;;;8.20;99.90;;;;;;5049883;28;20029;-75
2023/01/06 10:01:11;;;;;;;10.63;7.43;;;8.20;99.90;;;;;;5040379;28;20021;-75
2023/01/06 10:03:37;;;;;;;13.30;9.70;;;8.20;99.90;;;;;;5044764;28;20086;-75
2023/01/06 10:06:25;;;;;;;11.80;8.65;;;8.30;99.90;;;;;;5040843;28;20021;-75
2023/01/06 10:08:50;;;;;;;10.45;7.97;;;8.40;99.90;;;;;;5036138;28;20025;-75
2023/01/06 10:11:37;;;;;;;9.15;6.90;;;8.40;99.90;;;;;;5049284;28;20498;-75
2023/01/06 10:14:17;;;;;;;8.70;6.65;;;8.40;99.90;;;;;;5040495;28;20029;-75
2023/01/06 10:17:22;;;;;;;8.55;6.53;;;8.30;99.90;;;;;;5048805;28;20082;-75
2023/01/06 10:19:58;;;;;;;10.30;6.43;;;8.40;99.90;;;;;;5058835;28;20033;-75
2023/01/06 10:22:24;;;;;;;8.75;5.82;;;8.50;99.90;;;;;;5045958;28;20571;-75
2023/01/06 10:25:14;;;;;;;7.65;5.80;;;8.70;99.90;;;;;;5038474;28;20065;-75
2023/01/06 10:27:47;;;;;;;8.77;5.13;;;8.70;99.90;;;;;;5033442;28;20080;-75
2023/01/06 10:30:16;;;;;;;8.15;6.03;;;8.80;99.90;;;;;;5045348;28;20063;-75
2023/01/06 10:32:44;;;;;;;7.95;5.22;;;8.90;99.90;;;;;;5046608;28;20123;-76
2023/01/06 10:35:13;;;;;;;7.68;5.07;;;9.00;99.90;;;;;;5046182;28;20032;-75
2023/01/06 10:37:42;;;;;;;7.68;5.15;;;9.00;99.90;;;;;;5043594;28;20103;-76
2023/01/06 10:40:27;;;;;;;5.78;4.80;;;9.20;99.90;;;;;;5023562;28;20021;-75
2023/01/06 10:42:56;;;;;;;7.40;4.70;;;9.20;99.90;;;;;;5045943;28;20374;-76
2023/01/06 10:45:46;;;;;;;6.93;5.00;;;9.20;99.90;;;;;;5029417;28;20017;-75
2023/01/06 10:48:23;;;;;;;6.90;4.47;;;9.30;99.90;;;;;;5029945;28;20041;-76
2023/01/06 10:50:49;;;;;;;5.82;4.30;;;9.50;99.90;;;;;;5046646;28;20056;-75
2023/01/06 10:53:15;;;;;;;5.22;4.35;;;9.50;99.90;;;;;;5056421;28;20079;-76
2023/01/06 10:55:53;;;;;;;5.78;4.13;;;9.50;99.90;;;;;;5046737;28;20043;-76
2023/01/06 10:58:53;;;;;;;5.57;4.53;;;9.40;99.90;;;;;;5042542;28;20529;-76
2023/01/06 11:01:26;;;;;;;5.80;4.10;;;9.60;99.90;;;;;;5037898;28;20070;-76
2023/01/06 11:04:10;;;;;;;4.30;3.70;;;9.60;99.90;;;;;;5048354;28;20029;-76
2023/01/06 11:06:44;;;;;;;6.13;4.13;;;9.70;99.90;;;;;;5040579;28;20032;-76
2023/01/06 11:09:25;;;;;;;5.32;4.18;;;9.70;99.90;;;;;;5059480;28;20051;-76
2023/01/06 11:11:53;;;;;;;5.83;4.07;;;9.70;99.90;;;;;;5045796;28;20026;-76
2023/01/06 11:14:21;;;;;;;5.55;4.43;;;9.60;99.90;;;;;;5047697;28;20259;-76
2023/01/06 11:17:13;;;;;;;7.22;4.18;;;9.60;99.90;;;;;;5047681;28;20029;-76
2023/01/06 11:19:42;;;;;;;4.82;4.30;;;9.80;99.90;;;;;;5046330;28;20060;-76
2023/01/06 11:22:34;;;;;;;8.80;5.75;;;9.80;99.90;;;;;;5040254;28;20025;-76
2023/01/06 11:25:00;;;;;;;7.30;6.18;;;9.90;99.90;;;;;;5052662;28;20336;-76
2023/01/06 11:27:26;;;;;;;6.72;5.97;;;9.90;99.90;;;;;;5045331;28;20048;-76
2023/01/06 11:29:52;;;;;;;8.32;6.65;;;9.90;99.90;;;;;;5048976;28;20087;-76
2023/01/06 11:32:28;;;;;;;8.43;5.78;;;10.00;99.90;;;;;;5034441;28;20515;-76
2023/01/06 11:34:55;;;;;;;6.82;5.45;;;10.00;99.90;;;;;;5049935;28;20128;-76
2023/01/06 11:37:39;;;;;;;7.50;6.10;;;10.10;99.90;;;;;;5049715;28;20558;-76
2023/01/06 11:40:30;;;;;;;7.20;5.40;;;10.10;99.90;;;;;;5041500;28;20104;-76
2023/01/06 11:43:05;;;;;;;8.65;6.18;;;10.00;99.90;;;;;;5041623;28;20031;-76
2023/01/06 11:45:37;;;;;;;7.55;5.32;;;10.00;99.90;;;;;;5051446;28;20064;-76
2023/01/06 11:48:16;;;;;;;5.30;4.80;;;9.80;99.90;;;;;;5039591;28;20576;-76
2023/01/06 11:50:55;;;;;;;6.65;5.05;;;9.80;99.90;;;;;;5052389;28;20025;-76
2023/01/06 11:53:23;;;;;;;5.68;4.45;;;9.80;99.90;;;;;;5051472;28;20206;-76
2023/01/06 11:56:04;;;;;;;5.55;4.65;;;9.90;99.90;;;;;;5052763;28;20550;-76
2023/01/06 11:58:44;;;;;;;5.93;4.03;;;9.80;99.90;;;;;;5052432;28;20029;-76
2023/01/06 12:01:47;;;;;;;6.22;3.88;;;10.00;99.90;;;;;;5040389;28;20017;-76
2023/01/06 12:04:41;;;;;;;4.53;3.55;;;10.00;99.90;;;;;;5047482;28;20033;-76
2023/01/06 12:07:24;;;;;;;4.75;3.40;;;10.00;99.90;;;;;;5047525;28;20025;-76
2023/01/06 12:09:51;;;;;;;4.53;3.58;;;9.90;99.90;;;;;;5052433;28;20036;-76
2023/01/06 12:12:24;;;;;;;4.75;3.30;;;10.10;99.90;;;;;;5051706;28;20025;-76
2023/01/06 12:14:50;;;;;;;9.15;3.40;;;10.20;99.90;;;;;;5048941;28;20052;-76
2023/01/06 12:17:35;;;;;;;4.47;3.10;;;10.20;99.90;;;;;;5052058;28;20495;-76
2023/01/06 12:20:10;;;;;;;4.00;3.25;;;10.20;99.90;;;;;;5051824;28;20119;-76
2023/01/06 12:22:39;;;;;;;3.65;3.28;;;10.30;99.90;;;;;;5052085;28;20025;-76
2023/01/06 12:25:21;;;;;;;3.13;2.83;;;10.30;99.90;;;;;;5051562;28;20103;-76
2023/01/06 12:28:20;;;;;;;4.35;2.63;;;10.50;99.90;;;;;;5051696;28;20159;-76
2023/01/06 12:30:53;;;;;;;3.55;2.65;;;10.60;99.90;;;;;;5051440;28;20043;-76
2023/01/06 12:33:57;;;;;;;3.30;2.97;;;10.70;99.90;;;;;;5051796;28;20017;-76
2023/01/06 12:36:29;;;;;;;3.90;2.78;;;10.80;99.90;;;;;;5051542;28;20029;-76
2023/01/06 12:39:04;;;;;;;3.05;2.67;;;10.70;99.90;;;;;;5052139;28;20067;-76
2023/01/06 12:41:41;;;;;;;4.28;2.80;;;10.70;99.90;;;;;;5050626;28;20033;-76
2023/01/06 12:44:28;;;;;;;5.15;3.20;;;10.90;99.90;;;;;;5051474;28;20029;-76
2023/01/06 12:47:06;;;;;;;4.43;3.22;;;11.10;99.90;;;;;;5050419;28;20025;-76
2023/01/06 12:49:38;;;;;;;4.13;3.63;;;10.90;99.90;;;;;;5048215;28;20025;-75
2023/01/06 12:52:19;;;;;;;5.55;3.80;;;11.00;99.90;;;;;;5051235;28;20509;-76
2023/01/06 12:54:51;;;;;;;4.20;3.10;;;11.00;99.90;;;;;;5050783;28;20020;-75
2023/01/06 12:57:38;;;;;;;5.70;4.00;;;11.10;99.90;;;;;;5051410;28;20272;-76
2023/01/06 13:00:30;;;;;;;4.82;3.80;;;11.00;99.90;;;;;;5050648;28;20099;-76
2023/01/06 13:03:17;;;;;;;5.05;3.92;;;11.10;99.90;;;;;;5042222;28;20119;-76
2023/01/06 13:06:00;;;;;;;5.72;4.13;;;11.20;99.90;;;;;;5051258;28;20033;-76
2023/01/06 13:08:57;;;;;;;5.60;4.18;;;11.20;99.90;;;;;;5046069;28;20319;-76
2023/01/06 13:11:59;;;;;;;5.10;3.90;;;11.30;99.90;;;;;;5051000;28;20029;-76
2023/01/06 13:14:28;;;;;;;4.30;3.65;;;11.40;99.90;;;;;;5051163;28;20110;-76